Terminal Aerodrome Forecast
Issued by NWS Sioux Falls, SD

Home | Current Version | Previous Version | Text Only | Print | Product List | Glossary On
Versions: 1 2 3 4 5 6 7 8 9 10 11 12 13
000
FTUS43 KFSD 231722
TAFSUX
TAF
KSUX 231722Z 2318/2418 32026G34KT P6SM BKN070
     FM240000 33019G26KT P6SM BKN090
     FM240600 33017G25KT P6SM SCT100
     FM241400 33022G34KT P6SM FEW150=

USA.gov is the U.S. government's official web portal to all federal, state and local government web resources and services.